createdAt,value
2018-05-11T02:06:11.126Z,10.2
2018-05-11T02:16:24.094Z,10.1
2018-05-11T02:26:41.944Z,9.5
2018-05-11T02:36:56.128Z,9.0
2018-05-11T02:47:10.865Z,8.7
2018-05-11T02:57:57.190Z,8.3
2018-05-11T03:08:11.921Z,8.3
2018-05-11T03:18:57.352Z,8.0
2018-05-11T03:29:43.024Z,7.9
2018-05-11T03:39:56.613Z,7.8
2018-05-11T03:50:10.684Z,7.7
2018-05-11T04:00:56.478Z,7.6
2018-05-11T04:11:42.409Z,7.8
2018-05-11T04:22:28.246Z,7.9
2018-05-11T04:32:42.397Z,7.9
2018-05-11T04:42:54.799Z,8.1
2018-05-11T04:53:40.502Z,8.6
2018-05-11T05:04:25.911Z,8.8
2018-05-11T05:15:12.779Z,9.1
2018-05-11T05:25:26.242Z,9.1
2018-05-11T05:35:40.421Z,9.3
2018-05-11T05:45:55.079Z,9.5
2018-05-11T05:56:06.965Z,9.7
2018-05-11T06:06:52.613Z,10.3
2018-05-11T06:17:38.314Z,10.7
2018-05-11T06:27:49.836Z,10.7
2018-05-11T06:38:04.123Z,11.2
2018-05-11T06:48:49.225Z,12.2
2018-05-11T06:59:34.417Z,12.8
2018-05-11T07:10:21.976Z,13.4
2018-05-11T07:21:07.606Z,13.8
2018-05-11T07:31:54.085Z,14.2
2018-05-11T07:42:08.046Z,14.2
2018-05-11T07:52:22.252Z,14.6
2018-05-11T08:02:36.811Z,15.2
2018-05-11T08:12:56.981Z,16.3
2018-05-11T08:23:10.955Z,17.1
2018-05-11T08:34:00.958Z,19.7
2018-05-11T08:44:14.820Z,19.7
2018-05-11T09:04:46.396Z,23.9
2018-05-11T09:15:00.429Z,25.8
2018-05-11T09:25:27.010Z,27.5
2018-05-11T09:35:39.417Z,28.9
2018-05-11T09:45:59.234Z,29.5
2018-05-11T10:06:32.189Z,27.9
2018-05-11T10:16:48.546Z,27.3
2018-05-11T10:27:05.531Z,27.3
2018-05-11T10:37:32.432Z,27.3
2018-05-11T10:47:46.786Z,27.8
2018-05-11T10:58:32.348Z,29.0
2018-05-11T11:08:47.118Z,29.0
2018-05-11T11:19:01.208Z,29.8
2018-05-11T11:29:46.375Z,31.5
2018-05-11T11:40:02.344Z,31.5
2018-05-11T11:50:47.565Z,32.5
2018-05-11T12:01:34.352Z,32.5
2018-05-11T12:11:46.170Z,32.5
2018-05-11T12:22:00.248Z,32.3
2018-05-11T12:32:15.193Z,32.2
2018-05-11T12:42:29.583Z,32.1
2018-05-11T12:52:43.891Z,32.3
2018-05-11T13:02:56.056Z,32.4
2018-05-11T13:13:10.273Z,32.5
2018-05-11T13:23:55.978Z,32.8
2018-05-11T13:34:07.938Z,32.9
2018-05-11T13:44:53.545Z,33.1
2018-05-11T13:55:39.623Z,33.3
2018-05-11T14:05:53.914Z,33.2
2018-05-11T14:16:18.319Z,33.3
2018-05-11T14:26:50.958Z,33.4
2018-05-11T14:37:02.294Z,33.2
2018-05-11T14:47:14.064Z,33.1
2018-05-11T14:57:27.917Z,32.9
2018-05-11T15:07:42.070Z,32.5
2018-05-11T15:17:56.557Z,31.9
2018-05-11T15:28:08.255Z,31.2
2018-05-11T15:38:54.397Z,29.5
2018-05-11T15:49:09.194Z,29.4
2018-05-11T15:59:21.313Z,28.6
2018-05-11T16:10:12.999Z,27.0
2018-05-11T16:21:06.566Z,27.0
2018-05-11T16:33:32.587Z,25.8
2018-05-11T16:44:00.093Z,25.8
2018-05-11T16:54:16.499Z,25.3
2018-05-11T17:04:30.576Z,24.8
2018-05-11T17:14:46.223Z,24.4
2018-05-11T17:25:00.071Z,24.0
2018-05-11T17:35:45.654Z,23.3
2018-05-11T17:46:31.559Z,22.9
2018-05-11T17:56:46.670Z,22.9
2018-05-11T18:06:59.599Z,22.5
2018-05-11T18:19:00.864Z,21.9
2018-05-11T19:02:49.780Z,20.7
2018-05-11T19:18:26.643Z,20.3
2018-05-11T19:30:45.461Z,19.9
2018-05-11T19:43:20.234Z,19.4
2018-05-11T19:53:35.163Z,19.4
2018-05-11T20:03:49.013Z,19.1
2018-05-11T20:14:03.136Z,18.8
2018-05-11T20:34:37.773Z,18.3
2018-05-11T20:45:23.504Z,17.9
2018-05-11T21:05:54.154Z,17.7
2018-05-11T21:16:07.896Z,17.5
2018-05-11T21:27:10.565Z,17.1
2018-05-11T21:37:22.410Z,17.1
2018-05-11T21:47:38.341Z,16.9
2018-05-11T21:57:53.022Z,16.8
2018-05-11T22:08:07.039Z,16.6
2018-05-11T22:18:52.841Z,16.3
2018-05-11T22:29:07.119Z,16.3
2018-05-11T22:39:52.696Z,16.2
2018-05-11T22:50:05.581Z,16.1
2018-05-11T23:00:21.771Z,16.1
2018-05-11T23:10:38.004Z,16.1
2018-05-11T23:20:52.796Z,16.0
2018-05-11T23:31:06.808Z,15.9
2018-05-11T23:41:30.837Z,15.9
2018-05-11T23:51:45.179Z,15.9
